Stormwatcher's Retreat Logo




                  Temp     Hi    Low   Out    Dew  Wind  Wind   Wind    Hi    Hi   Wind   Heat    THW   THSW                Rain  Solar   Solar Hi Solar   UV    UV    Hi     Heat    Cool    In     In    In     In     In   In Air          Wind  Wind    ISS   Arc.
  Date    Time     Out   Temp   Temp   Hum    Pt. Speed   Dir    Run Speed   Dir  Chill  Index  Index  Index   Bar    Rain  Rate   Rad.  Energy    Rad.  Index  Dose   UV     D-D     D-D    Temp   Hum    Dew   Heat    EMC Density     ET   Samp   Tx   Recept  Int.
------------------------------------------------------------------------------------------------------------------------------------------------------------------------------------------------------------------------------------------------------------------------
 3/03/21 12:10a   38.1   38.2   38.1    90   35.4   0.0   ---   0.00   0.0   ---   38.1   38.0   38.0   34.3  29.920  0.00  0.00     0     0.00      0     0.0  0.00   0.0   0.187   0.000   69.7    47   48.6   67.8   8.76  .0741    0.000   202    7    100.0   10 
 3/03/21 12:20a   38.5   38.5   38.2    90   35.8   0.0   ---   0.00   0.0   ---   38.5   38.4   38.4   34.7  29.920  0.00  0.00     0     0.00      0     0.0  0.00   0.0   0.184   0.000   69.6    47   48.5   67.7   8.76  .0741    0.000   198    7    100.0   10 
 3/03/21 12:30a   38.5   38.6   38.4    90   35.8   0.0   ---   0.00   0.0   ---   38.5   38.4   38.4   34.7  29.919  0.00  0.00     0     0.00      0     0.0  0.00   0.0   0.184   0.000   69.5    47   48.4   67.6   8.76  .0741    0.000   197    7     99.5   10 
 3/03/21 12:40a   38.6   38.6   38.4    91   36.2   0.0   ---   0.00   0.0   ---   38.6   38.5   38.5   34.8  29.915  0.00  0.00     0     0.00      0     0.0  0.00   0.0   0.183   0.000   69.4    47   48.3   67.6   8.76  .0741    0.000   201    7    100.0   10 
 3/03/21 12:50a   39.4   39.4   38.6    92   37.3   0.0   ---   0.00   0.0   ---   39.4   39.4   39.4   35.8  29.911  0.00  0.00     0     0.00      0     0.0  0.00   0.0   0.178   0.000   69.4    47   48.3   67.6   8.76  .0741    0.000   204    7    100.0   10 
 3/03/21  1:00a   39.5   39.5   39.4    91   37.1   0.0   ---   0.00   0.0   ---   39.5   39.4   39.4   35.8  29.910  0.00  0.00     0     0.00      0     0.0  0.00   0.0   0.177   0.000   69.2    47   48.1   67.4   8.77  .0742    0.000   201    7    100.0   10 
 3/03/21  1:10a   39.5   39.6   39.5    91   37.1   0.0   ---   0.00   0.0   ---   39.5   39.4   39.4   35.8  29.907  0.00  0.00     0     0.00      0     0.0  0.00   0.0   0.177   0.000   69.2    47   48.1   67.4   8.77  .0742    0.000   204    7    100.0   10 
 3/03/21  1:20a   39.1   39.5   39.1    91   36.7   1.0   ENE   0.17   3.0     E   39.1   39.0   39.0   35.3  29.904  0.00  0.00     0     0.00      0     0.0  0.00   0.0   0.180   0.000   69.1    47   48.0   67.4   8.77  .0742    0.000   202    7    100.0   10 
 3/03/21  1:30a   38.7   39.1   38.7    91   36.3   1.0   ENE   0.17   3.0   ENE   38.7   38.6   38.6   34.9  29.904  0.00  0.00     0     0.00      0     0.0  0.00   0.0   0.183   0.000   69.0    47   47.9   67.3   8.77  .0742    0.000   203    7    100.0   10 
 3/03/21  1:40a   38.4   38.7   38.4    91   36.0   1.0   ENE   0.17   3.0   ENE   38.4   38.3   38.3   34.6  29.903  0.00  0.00     0     0.00      0     0.0  0.00   0.0   0.185   0.000   68.9    47   47.8   67.2   8.77  .0742    0.000   201    7    100.0   10 
 3/03/21  1:50a   38.1   38.4   38.1    91   35.7   1.0   ENE   0.17   6.0     E   38.1   38.0   38.0   34.3  29.901  0.00  0.00     0     0.00      0     0.0  0.00   0.0   0.187   0.000   68.8    47   47.7   67.1   8.77  .0742    0.000   201    7    100.0   10 
 3/03/21  2:00a   38.1   38.1   37.9    92   36.0   2.0   ENE   0.33   6.0     E   37.7   38.0   37.6   33.9  29.900  0.00  0.00     0     0.00      0     0.0  0.00   0.0   0.187   0.000   68.7    47   47.6   67.0   8.78  .0742    0.000   202    7    100.0   10 
 3/03/21  2:10a   38.3   38.3   38.1    92   36.2   1.0   ENE   0.17   5.0   ENE   38.3   38.2   38.2   34.5  29.898  0.00  0.00     0     0.00      0     0.0  0.00   0.0   0.185   0.000   68.7    47   47.6   67.0   8.78  .0742    0.000   200    7    100.0   10 
 3/03/21  2:20a   38.3   38.3   38.2    92   36.2   2.0   ENE   0.33   5.0   ENE   37.9   38.2   37.8   34.1  29.895  0.00  0.00     0     0.00      0     0.0  0.00   0.0   0.185   0.000   68.6    47   47.6   66.9   8.78  .0742    0.000   200    7    100.0   10 
 3/03/21  2:30a   38.3   38.3   38.2    92   36.2   2.0   ENE   0.33   5.0    NE   37.9   38.2   37.8   34.1  29.894  0.00  0.00     0     0.00      0     0.0  0.00   0.0   0.185   0.000   68.5    47   47.5   66.8   8.78  .0742    0.000   199    7    100.0   10 
 3/03/21  2:40a   38.7   38.7   38.3    92   36.6   2.0   ENE   0.33   6.0   ESE   38.3   38.6   38.2   34.5  29.892  0.00  0.00     0     0.00      0     0.0  0.00   0.0   0.183   0.000   68.4    47   47.4   66.8   8.78  .0743    0.000   201    7    100.0   10 
 3/03/21  2:50a   38.6   38.7   38.6    92   36.5   2.0   ENE   0.33   4.0   ENE   38.2   38.5   38.1   34.4  29.891  0.00  0.00     0     0.00      0     0.0  0.00   0.0   0.183   0.000   68.4    47   47.4   66.8   8.78  .0743    0.000   204    7    100.0   10 
 3/03/21  3:00a   38.8   38.8   38.5    93   36.9   3.0   ENE   0.50   8.0   ENE   37.0   38.8   37.0   33.3  29.886  0.00  0.00     0     0.00      0     0.0  0.00   0.0   0.182   0.000   68.3    47   47.3   66.7   8.78  .0743    0.000   201    7    100.0   10 
 3/03/21  3:10a   39.4   39.4   38.8    92   37.3   3.0    NE   0.50   8.0   ENE   37.7   39.4   37.7   34.1  29.881  0.00  0.00     0     0.00      0     0.0  0.00   0.0   0.178   0.000   68.2    47   47.2   66.6   8.79  .0743    0.000   200    7    100.0   10 
 3/03/21  3:20a   39.5   39.5   39.4    92   37.4   3.0   ENE   0.50   9.0   ENE   37.8   39.5   37.8   34.2  29.879  0.00  0.00     0     0.00      0     0.0  0.00   0.0   0.177   0.000   68.1    47   47.1   66.5   8.79  .0743    0.000   203    7    100.0   10 
 3/03/21  3:30a   39.4   39.5   39.4    92   37.3   2.0   ENE   0.33   5.0   ENE   39.1   39.4   39.1   35.5  29.875  0.00  0.00     0     0.00      0     0.0  0.00   0.0   0.178   0.000   68.0    47   47.0   66.4   8.79  .0743    0.000   204    7    100.0   10 
 3/03/21  3:40a   39.2   39.4   39.1    92   37.1   3.0   ENE   0.50   8.0   ENE   37.5   39.1   37.4   33.8  29.876  0.00  0.00     0     0.00      0     0.0  0.00   0.0   0.179   0.000   68.0    47   47.0   66.4   8.79  .0743    0.000   201    7    100.0   10 
 3/03/21  3:50a   39.0   39.2   39.0    92   36.9   2.0     E   0.33   6.0     E   38.7   38.9   38.6   34.9  29.874  0.00  0.00     0     0.00      0     0.0  0.00   0.0   0.181   0.000   67.9    47   46.9   66.3   8.79  .0743    0.000   201    7    100.0   10 
 3/03/21  4:00a   38.5   39.0   38.5    92   36.4   2.0     E   0.33   4.0     E   38.1   38.4   38.0   34.3  29.873  0.00  0.00     0     0.00      0     0.0  0.00   0.0   0.184   0.000   67.8    47   46.8   66.2   8.79  .0743    0.000   205    7    100.0   10 
 3/03/21  4:10a   38.3   38.6   38.2    92   36.2   2.0     E   0.33   4.0     E   37.9   38.2   37.8   34.1  29.872  0.00  0.00     0     0.00      0     0.0  0.00   0.0   0.185   0.000   67.7    47   46.7   66.1   8.80  .0743    0.000   202    7    100.0   10 
 3/03/21  4:20a   38.0   38.3   38.0    92   35.9   2.0     E   0.33   4.0     E   37.6   37.9   37.5   33.8  29.871  0.00  0.00     0     0.00      0     0.0  0.00   0.0   0.188   0.000   67.7    47   46.7   66.1   8.80  .0743    0.000   201    7    100.0   10 
 3/03/21  4:30a   38.1   38.1   37.9    93   36.3   2.0     E   0.33   7.0     E   37.7   38.1   37.7   34.0  29.873  0.00  0.00     0     0.00      0     0.0  0.00   0.0   0.187   0.000   67.6    47   46.6   66.0   8.80  .0743    0.000   203    7    100.0   10 
 3/03/21  4:40a   38.4   38.4   38.1    92   36.3   2.0   ENE   0.33   6.0     E   38.0   38.3   37.9   34.2  29.871  0.00  0.00     0     0.00      0     0.0  0.00   0.0   0.185   0.000   67.5    47   46.6   65.8   8.80  .0744    0.000   204    7    100.0   10 
 3/03/21  4:50a   38.3   38.4   38.3    92   36.2   2.0   ENE   0.33   4.0   ENE   37.9   38.2   37.8   34.1  29.869  0.00  0.00     0     0.00      0     0.0  0.00   0.0   0.185   0.000   67.4    47   46.5   65.7   8.80  .0744    0.000   203    7    100.0   10 
 3/03/21  5:00a   38.4   38.4   38.3    93   36.6   2.0    NE   0.33   6.0     E   38.0   38.4   38.0   34.3  29.869  0.00  0.00     0     0.00      0     0.0  0.00   0.0   0.185   0.000   67.3    47   46.4   65.6   8.80  .0744    0.000   202    7    100.0   10 
 3/03/21  5:10a   38.3   38.4   38.2    92   36.2   2.0   ENE   0.33   4.0    NE   37.9   38.2   37.8   34.1  29.872  0.00  0.00     0     0.00      0     0.0  0.00   0.0   0.185   0.000   67.3    47   46.4   65.6   8.80  .0744    0.000   201    7    100.0   10 
 3/03/21  5:20a   38.2   38.3   38.2    92   36.1   2.0   ENE   0.33   4.0   ENE   37.8   38.1   37.7   34.0  29.871  0.00  0.00     0     0.00      0     0.0  0.00   0.0   0.186   0.000   67.2    46   45.7   65.4   8.65  .0744    0.000   199    7    100.0   10 
 3/03/21  5:30a   38.3   38.3   38.1    93   36.5   1.0   ENE   0.17   7.0   ENE   38.3   38.3   38.3   34.6  29.870  0.00  0.00     0     0.00      0     0.0  0.00   0.0   0.185   0.000   67.1    46   45.6   65.3   8.65  .0744    0.000   201    7    100.0   10 
 3/03/21  5:40a   38.8   38.8   38.4    93   36.9   2.0     E   0.33   7.0     E   38.4   38.8   38.4   34.7  29.867  0.00  0.00     0     0.00      0     0.0  0.00   0.0   0.182   0.000   67.1    46   45.6   65.3   8.65  .0744    0.000   201    7    100.0   10 
 3/03/21  5:50a   38.7   38.8   38.6    93   36.9   2.0     E   0.33   4.0     E   38.3   38.7   38.3   34.6  29.866  0.00  0.00     0     0.00      0     0.0  0.00   0.0   0.183   0.000   67.0    46   45.5   65.2   8.65  .0744    0.000   202    7    100.0   10 
 3/03/21  6:00a   38.7   38.7   38.6    93   36.9   2.0     E   0.33   4.0     E   38.3   38.7   38.3   34.6  29.864  0.00  0.00     0     0.00      0     0.0  0.00   0.0   0.183   0.000   66.9    46   45.4   65.1   8.65  .0745    0.000   202    7    100.0   10 
 3/03/21  6:10a   38.5   38.7   38.5    93   36.7   1.0     E   0.17   3.0     E   38.5   38.5   38.5   34.8  29.864  0.00  0.00     0     0.00      0     0.0  0.00   0.0   0.184   0.000   66.9    47   46.0   65.2   8.81  .0744    0.000   203    7    100.0   10 
 3/03/21  6:20a   38.2   38.5   38.2    92   36.1   2.0     E   0.33   4.0     E   37.8   38.1   37.7   34.0  29.863  0.00  0.00     0     0.00      0     0.0  0.00   0.0   0.186   0.000   66.8    46   45.3   65.0   8.65  .0745    0.000   198    7    100.0   10 
 3/03/21  6:30a   37.8   38.2   37.8    92   35.7   2.0     E   0.33   3.0     E   37.3   37.7   37.2   33.5  29.865  0.00  0.00     0     0.00      0     0.0  0.00   0.0   0.189   0.000   67.0    46   45.5   65.2   8.65  .0744    0.000   201    7    100.0   10 
 3/03/21  6:40a   37.8   37.8   37.6    93   36.0   2.0     E   0.33   4.0     E   37.3   37.8   37.3   33.6  29.864  0.00  0.00     0     0.00      0     0.0  0.00   0.0   0.189   0.000   67.1    46   45.6   65.3   8.65  .0744    0.000   197    7     99.5   10 
 3/03/21  6:50a   38.3   38.3   37.8    93   36.5   2.0     E   0.33   3.0     E   37.9   38.3   37.9   34.2  29.862  0.00  0.00     0     0.00      0     0.0  0.00   0.0   0.185   0.000   67.4    46   45.9   65.6   8.65  .0744    0.000   196    7     99.0   10 
 3/03/21  7:00a   38.8   38.8   38.3    94   37.2   2.0     E   0.33   3.0     E   38.4   38.8   38.4   34.9  29.864  0.00  0.00     5     0.07      7     0.0  0.00   0.0   0.182   0.000   67.6    46   46.1   65.9   8.65  .0743    0.000   200    7    100.0   10 
 3/03/21  7:10a   39.1   39.1   38.8    94   37.5   1.0     E   0.17   3.0     E   39.1   39.1   39.1   35.7  29.863  0.00  0.00    11     0.16     14     0.0  0.00   0.0   0.180   0.000   67.9    46   46.3   66.2   8.65  .0743    0.000   198    7    100.0   10 
 3/03/21  7:20a   39.5   39.5   39.1    94   37.9   1.0     E   0.17   3.0     E   39.5   39.5   39.5   36.2  29.862  0.00  0.00    16     0.23     19     0.0  0.00   0.0   0.177   0.000   68.1    46   46.5   66.4   8.65  .0742    0.000   204    7    100.0   10 
 3/03/21  7:30a   39.7   39.7   39.4    94   38.1   2.0     E   0.33   3.0     E   39.4   39.7   39.4   36.2  29.862  0.00  0.00    21     0.30     23     0.0  0.00   0.0   0.176   0.000   68.2    46   46.6   66.5   8.65  .0742    0.000   201    7    100.0   10 
 3/03/21  7:40a   39.9   39.9   39.7    94   38.3   1.0   ESE   0.17   2.0   ESE   39.9   40.0   40.0   37.0  29.861  0.00  0.00    30     0.43     33     0.0  0.00   0.0   0.174   0.000   68.3    46   46.7   66.6   8.65  .0742    0.000   203    7    100.0   10 
 3/03/21  7:50a   40.3   40.3   39.9    94   38.7   1.0   ESE   0.17   2.0   ESE   40.3   40.4   40.4   37.7  29.863  0.00  0.00    40     0.57     44     0.0  0.00   0.0   0.172   0.000   68.3    46   46.7   66.6   8.65  .0742    0.000   200    7    100.0   10 
 3/03/21  8:00a   40.5   40.6   40.3    94   38.9   0.0   ESE   0.00   2.0   ESE   40.5   40.6   40.6   38.0  29.866  0.00  0.00    46     0.66     47     0.0  0.00   0.0   0.170   0.000   68.4    46   46.8   66.7   8.65  .0742    0.000   203    7    100.0   10 
 3/03/21  8:10a   40.9   40.9   40.5    94   39.3   0.0   ---   0.00   0.0   ---   40.9   41.0   41.0   41.1  29.866  0.00  0.00    51     0.73     54     0.0  0.00   0.0   0.167   0.000   68.4    46   46.8   66.7   8.65  .0742    0.000   202    7    100.0   10 
 3/03/21  8:20a   41.2   41.3   40.8    94   39.6   0.0   ---   0.00   0.0   ---   41.2   41.3   41.3   41.8  29.866  0.00  0.00    62     0.89     65     0.0  0.00   0.0   0.165   0.000   68.5    46   46.9   66.8   8.65  .0742    0.000   200    7    100.0   10 
 3/03/21  8:30a   41.6   41.6   41.3    94   40.0   0.0   ---   0.00   0.0   ---   41.6   41.7   41.7   42.5  29.868  0.00  0.00    69     0.99     72     0.0  0.00   0.0   0.163   0.000   68.6    46   47.0   66.8   8.65  .0742    0.000   200    7    100.0   10 
 3/03/21  8:40a   42.0   42.0   41.6    94   40.4   0.0   ---   0.00   0.0   ---   42.0   42.1   42.1   43.2  29.867  0.00  0.00    76     1.09     77     0.0  0.00   0.0   0.160   0.000   68.7    46   47.1   66.9   8.65  .0742    0.000   202    7    100.0   10 
 3/03/21  8:50a   42.3   42.3   42.0    94   40.7   0.0   ---   0.00   0.0   ---   42.3   42.4   42.4   43.6  29.865  0.00  0.00    81     1.16     83     0.0  0.00   0.0   0.158   0.000   68.7    46   47.1   66.9   8.65  .0742    0.000   199    7    100.0   10 
 3/03/21  9:00a   42.5   42.5   42.2    93   40.6   0.0   ---   0.00   0.0   ---   42.5   42.6   42.6   44.1  29.866  0.00  0.00    89     1.28     95     0.0  0.00   0.0   0.156   0.000   68.7    46   47.1   66.9   8.65  .0742    0.001   203    7    100.0   10 
 3/03/21  9:10a   42.7   42.7   42.5    93   40.8   0.0   ---   0.00   0.0   ---   42.7   42.8   42.8   44.7  29.867  0.00  0.00   104     1.49    107     0.0  0.00   0.0   0.155   0.000   68.7    46   47.1   66.9   8.65  .0742    0.000   204    7    100.0   10 
 3/03/21  9:20a   43.1   43.1   42.7    93   41.2   0.0   ---   0.00   0.0   ---   43.1   43.2   43.2   45.4  29.868  0.00  0.00   111     1.59    114     0.0  0.00   0.0   0.152   0.000   68.7    46   47.1   66.9   8.65  .0742    0.000   201    7    100.0   10 
 3/03/21  9:30a   43.4   43.4   43.0    93   41.5   0.0    NE   0.00   4.0    NE   43.4   43.5   43.5   45.5  29.870  0.00  0.00   110     1.58    113     0.0  0.00   0.0   0.150   0.000   68.7    45   46.5   66.8   8.48  .0742    0.000   201    7    100.0   10 
 3/03/21  9:40a   43.6   43.6   43.4    93   41.7   1.0    NE   0.17   4.0    NE   43.6   43.7   43.7   45.6  29.869  0.00  0.00   109     1.56    113     0.0  0.00   0.0   0.149   0.000   68.7    45   46.5   66.8   8.48  .0742    0.000   202    7    100.0   10 
 3/03/21  9:50a   43.9   43.9   43.6    92   41.7   2.0    NE   0.33   5.0   ENE   43.9   44.0   44.0   45.9  29.872  0.00  0.00   111     1.59    113     0.1  0.01   0.5   0.147   0.000   68.7    45   46.5   66.8   8.48  .0742    0.000   202    7    100.0   10 
 3/03/21 10:00a   43.8   43.9   43.7    92   41.6   2.0   NNE   0.33   7.0   NNE   43.8   43.9   43.9   45.9  29.870  0.00  0.00   117     1.68    121     0.5  0.04   0.5   0.147   0.000   68.7    45   46.5   66.8   8.48  .0742    0.002   201    7    100.0   10 
 3/03/21 10:10a   44.2   44.2   43.9    91   41.7   3.0     N   0.50   6.0     N   43.1   44.3   43.2   45.6  29.869  0.00  0.00   129     1.85    141     0.5  0.04   0.6   0.144   0.000   68.8    45   46.6   66.9   8.47  .0742    0.000   202    7    100.0   10 
 3/03/21 10:20a   44.5   44.5   44.2    92   42.3   2.0    NE   0.33   6.0   NNE   44.5   44.6   44.6   47.2  29.870  0.00  0.00   137     1.96    141     0.6  0.04   0.6   0.142   0.000   68.8    45   46.6   66.9   8.47  .0742    0.000   202    7    100.0   10 
 3/03/21 10:30a   44.4   44.6   44.4    91   41.9   3.0    NE   0.50   6.0    NE   43.3   44.5   43.4   46.3  29.868  0.00  0.00   149     2.14    156     0.7  0.05   0.7   0.143   0.000   68.8    46   47.2   67.0   8.65  .0741    0.000   204    7    100.0   10 
 3/03/21 10:40a   44.7   44.7   44.4    91   42.2   2.0    NE   0.33   5.0   ENE   44.7   44.8   44.8   47.8  29.868  0.00  0.00   153     2.19    156     0.7  0.05   0.7   0.141   0.000   68.7    46   47.1   66.9   8.65  .0742    0.000   203    7    100.0   10 
 3/03/21 10:50a   44.8   44.8   44.6    91   42.3   2.0   ENE   0.33   4.0   ENE   44.8   44.9   44.9   48.1  29.865  0.00  0.00   162     2.32    165     0.8  0.06   0.8   0.140   0.000   68.7    46   47.1   66.9   8.65  .0742    0.000   204    7    100.0   10 
 3/03/21 11:00a   45.1   45.2   44.8    90   42.3   3.0   NNE   0.50   5.0    NE   44.1   45.2   44.2   47.5  29.863  0.00  0.00   167     2.39    186     0.8  0.06   0.9   0.138   0.000   68.8    46   47.2   67.0   8.65  .0741    0.003   201    7    100.0   10 
 3/03/21 11:10a   45.2   45.2   44.9    90   42.4   2.0   NNE   0.33   5.0     N   45.2   45.3   45.3   49.1  29.863  0.00  0.00   186     2.67    190     0.9  0.06   0.9   0.137   0.000   68.8    46   47.2   67.0   8.65  .0741    0.000   203    7    100.0   10 
 3/03/21 11:20a   45.5   45.5   45.2    90   42.7   3.0     N   0.50   4.0     N   44.6   45.6   44.7   48.9  29.863  0.00  0.00   202     2.90    220     1.0  0.07   1.1   0.135   0.000   69.0    46   47.4   67.2   8.65  .0741    0.000   203    7    100.0   10 
 3/03/21 11:30a   45.7   45.7   45.5    90   42.9   2.0   NNW   0.33   4.0   NNW   45.7   45.8   45.8   51.0  29.859  0.00  0.00   233     3.34    236     1.1  0.08   1.2   0.134   0.000   69.1    46   47.4   67.3   8.65  .0741    0.000   203    7    100.0   10 
 3/03/21 11:40a   46.1   46.2   45.7    89   43.0   2.0     N   0.33   4.0     N   46.1   46.2   46.2   51.5  29.860  0.00  0.00   237     3.40    239     1.2  0.09   1.2   0.131   0.000   69.2    46   47.5   67.3   8.65  .0741    0.000   202    7    100.0   10 
 3/03/21 11:50a   46.5   46.5   46.1    89   43.4   2.0   NNE   0.33   4.0   NNE   46.5   46.6   46.6   51.2  29.860  0.00  0.00   217     3.11    230     1.1  0.08   1.2   0.128   0.000   69.4    46   47.7   67.5   8.65  .0740    0.000   201    7    100.0   10 
 3/03/21 12:00p   46.6   46.6   46.5    89   43.5   2.0     N   0.33   4.0     N   46.6   46.7   46.7   51.1  29.859  0.00  0.00   210     3.01    214     1.1  0.08   1.1   0.128   0.000   69.5    46   47.8   67.6   8.65  .0740    0.004   204    7    100.0   10 
 3/03/21 12:10p   46.9   46.9   46.5    88   43.5   2.0     N   0.33   4.0     N   46.9   47.0   47.0   51.6  29.857  0.00  0.00   216     3.10    225     1.1  0.08   1.1   0.126   0.000   69.6    46   47.9   67.6   8.65  .0740    0.000   198    7    100.0   10 
 3/03/21 12:20p   46.7   46.9   46.7    88   43.3   2.0     N   0.33   3.0     N   46.7   46.8   46.8   51.6  29.854  0.00  0.00   224     3.21    230     1.1  0.08   1.2   0.127   0.000   69.6    45   47.3   67.5   8.46  .0740    0.000   203    7    100.0   10 
 3/03/21 12:30p   46.9   47.0   46.8    87   43.2   2.0     N   0.33   4.0     N   46.9   47.0   47.0   52.0  29.853  0.00  0.00   231     3.31    236     1.2  0.09   1.2   0.126   0.000   69.6    45   47.3   67.5   8.46  .0740    0.000   203    7    100.0   10 
 3/03/21 12:40p   47.1   47.2   46.9    87   43.4   2.0   NNW   0.33   4.0   NNW   47.1   47.2   47.2   52.7  29.852  0.00  0.00   244     3.50    253     1.2  0.09   1.3   0.124   0.000   69.6    45   47.3   67.5   8.46  .0740    0.000   202    7    100.0   10 
 3/03/21 12:50p   47.2   47.2   47.0    87   43.5   2.0   NNW   0.33   3.0   NNW   47.2   47.3   47.3   52.9  29.849  0.00  0.00   245     3.51    253     1.2  0.09   1.2   0.124   0.000   69.8    46   48.1   67.8   8.65  .0739    0.000   201    7    100.0   10 
 3/03/21  1:00p   47.3   47.3   47.1    86   43.3   2.0   NNW   0.33   4.0   NNW   47.3   47.3   47.3   54.0  29.845  0.00  0.00   286     4.10    308     1.4  0.10   1.5   0.123   0.000   69.9    46   48.2   67.8   8.65  .0739    0.004   203    7    100.0   10 
 3/03/21  1:10p   47.5   47.5   47.3    86   43.5   2.0   NNW   0.33   3.0   NNW   47.5   47.5   47.5   55.1  29.844  0.00  0.00   321     4.60    345     1.5  0.11   1.5   0.122   0.000   70.0    46   48.3   67.9   8.65  .0739    0.000   200    7    100.0   10 
 3/03/21  1:20p   47.9   47.9   47.5    86   43.9   2.0   NNW   0.33   4.0   NNW   47.9   47.9   47.9   55.8  29.842  0.00  0.00   331     4.74    341     1.5  0.11   1.5   0.119   0.000   70.1    46   48.4   68.0   8.65  .0739    0.000   201    7    100.0   10 
 3/03/21  1:30p   47.9   47.9   47.8    85   43.6   2.0   NNW   0.33   4.0   NNW   47.9   47.9   47.9   56.8  29.837  0.00  0.00   384     5.50    452     1.6  0.11   1.7   0.119   0.000   70.2    46   48.4   68.2   8.65  .0738    0.000   202    7    100.0   10 
 3/03/21  1:40p   48.2   48.2   47.9    84   43.6   2.0   NNW   0.33   4.0   NNW   48.2   48.2   48.2   57.0  29.838  0.00  0.00   374     5.36    401     1.6  0.11   1.6   0.117   0.000   70.2    46   48.4   68.2   8.65  .0738    0.000   200    7    100.0   10 
 3/03/21  1:50p   48.2   48.2   48.1    85   43.9   2.0   NNW   0.33   5.0   WSW   48.2   48.2   48.2   56.4  29.837  0.00  0.00   335     4.80    350     1.5  0.11   1.5   0.117   0.000   70.3    46   48.5   68.3   8.64  .0738    0.000   204    7    100.0   10 
 3/03/21  2:00p   48.1   48.2   48.1    84   43.5   2.0     W   0.33   4.0     W   48.1   48.1   48.1   55.9  29.835  0.00  0.00   311     4.46    323     1.3  0.09   1.4   0.117   0.000   70.3    46   48.5   68.3   8.64  .0738    0.006   202    7    100.0   10 
 3/03/21  2:10p   47.9   48.1   47.8    84   43.3   2.0   WSW   0.33   7.0     W   47.9   47.9   47.9   55.1  29.835  0.00  0.00   279     4.00    292     1.2  0.09   1.3   0.119   0.000   70.3    46   48.5   68.3   8.64  .0738    0.000   203    7    100.0   10 
 3/03/21  2:20p   47.8   48.0   47.8    84   43.2   5.0     W   0.83   8.0     W   45.7   47.8   45.7   52.4  29.835  0.00  0.00   257     3.68    276     1.1  0.08   1.1   0.119   0.000   70.4    46   48.6   68.4   8.64  .0738    0.000   204    7    100.0   10 
 3/03/21  2:30p   47.2   47.8   47.2    84   42.6   6.0     W   1.00   8.0     W   44.3   47.2   44.3   50.2  29.835  0.00  0.00   223     3.20    229     0.9  0.06   1.0   0.124   0.000   70.5    46   48.7   68.6   8.64  .0738    0.000   200    7    100.0   10 
 3/03/21  2:40p   47.1   47.2   47.1    84   42.5   5.0     W   0.83   8.0     W   44.8   47.1   44.8   50.1  29.836  0.00  0.00   199     2.85    216     0.8  0.06   0.9   0.124   0.000   70.6    46   48.8   68.7   8.64  .0738    0.000   198    7    100.0   10 
 3/03/21  2:50p   47.0   47.1   47.0    85   42.7   5.0     W   0.83   7.0     W   44.7   47.0   44.7   49.4  29.837  0.00  0.00   182     2.61    186     0.7  0.05   0.7   0.125   0.000   70.7    46   48.9   68.8   8.64  .0737    0.000   199    7    100.0   10 
 3/03/21  3:00p   46.9   47.1   46.9    85   42.6   4.0   WNW   0.67   8.0   WNW   45.3   46.9   45.3   49.6  29.838  0.00  0.00   166     2.38    176     0.7  0.05   0.7   0.126   0.000   70.7    46   48.9   68.8   8.64  .0737    0.004   201    7    100.0   10 
 3/03/21  3:10p   46.9   47.0   46.9    85   42.6   5.0   WNW   0.83   8.0   WNW   44.6   46.9   44.6   48.2  29.839  0.00  0.00   144     2.06    156     0.6  0.04   0.6   0.126   0.000   70.7    46   48.9   68.8   8.64  .0738    0.000   202    7    100.0   10 
 3/03/21  3:20p   46.8   46.9   46.7    84   42.2   4.0   WNW   0.67   7.0   WNW   45.2   46.8   45.2   48.6  29.838  0.00  0.00   138     1.98    139     0.5  0.04   0.5   0.126   0.000   70.6    46   48.8   68.7   8.64  .0738    0.000   202    7    100.0   10 
 3/03/21  3:30p   46.8   46.8   46.7    84   42.2   4.0   WNW   0.67   7.0   WNW   45.2   46.8   45.2   48.6  29.839  0.00  0.00   136     1.95    137     0.5  0.04   0.5   0.126   0.000   70.6    46   48.8   68.7   8.64  .0738    0.000   205    7    100.0   10 
 3/03/21  3:40p   46.8   46.9   46.7    84   42.2   3.0     W   0.50   6.0     W   46.1   46.8   46.1   49.4  29.839  0.00  0.00   142     2.04    153     0.5  0.04   0.5   0.126   0.000   70.5    46   48.7   68.6   8.64  .0738    0.000   204    7    100.0   10 
 3/03/21  3:50p   47.1   47.1   46.8    84   42.5   2.0    NW   0.33   5.0    NW   47.1   47.1   47.1   50.9  29.837  0.00  0.00   162     2.32    169     0.5  0.04   0.5   0.124   0.000   70.5    46   48.7   68.6   8.64  .0738    0.000   200    7    100.0   10 
 3/03/21  4:00p   47.2   47.2   47.1    83   42.3   2.0     N   0.33   4.0   NNW   47.2   47.1   47.1   47.2  29.838  0.00  0.00   164     2.35    169     0.3  0.02   0.5   0.124   0.000   70.5    46   48.7   68.6   8.64  .0738    0.003   203    7    100.0   10 
 3/03/21  4:10p   47.4   47.4   47.2    83   42.5   3.0   WNW   0.50   5.0   WNW   46.7   47.3   46.6   46.5  29.836  0.00  0.00   156     2.24    160     0.0  0.00   0.0   0.122   0.000   70.6    46   48.8   68.7   8.64  .0738    0.000   201    7    100.0   10 
 3/03/21  4:20p   47.4   47.5   47.3    82   42.2   2.0   WNW   0.33   4.0   WNW   47.4   47.3   47.3   47.1  29.835  0.00  0.00   150     2.15    153     0.0  0.00   0.0   0.122   0.000   70.7    46   48.9   68.8   8.64  .0737    0.000   202    7    100.0   10 
 3/03/21  4:30p   47.6   47.6   47.4    82   42.4   2.0   WNW   0.33   4.0   WNW   47.6   47.5   47.5   47.3  29.834  0.00  0.00   153     2.19    174     0.0  0.00   0.0   0.121   0.000   70.8    46   49.0   68.9   8.63  .0737    0.000   201    7    100.0   10 
 3/03/21  4:40p   47.6   47.7   47.5    81   42.1   2.0     N   0.33   4.0     N   47.6   47.5   47.5   47.1  29.835  0.00  0.00   141     2.02    142     0.0  0.00   0.0   0.121   0.000   70.8    46   49.0   68.9   8.63  .0737    0.000   200    7    100.0   10 
 3/03/21  4:50p   47.7   47.8   47.6    81   42.2   2.0    NW   0.33   4.0    NW   47.7   47.6   47.6   47.1  29.833  0.00  0.00   139     1.99    142     0.0  0.00   0.0   0.120   0.000   70.8    46   49.0   68.9   8.63  .0737    0.000   201    7    100.0   10 
 3/03/21  5:00p   48.2   48.2   47.8    81   42.6   1.0    NW   0.17   4.0    NW   48.2   48.1   48.1   48.4  29.834  0.00  0.00   172     2.47    204     0.0  0.00   0.0   0.117   0.000   70.8    46   49.0   68.9   8.63  .0737    0.003   199    7    100.0   10 
 3/03/21  5:10p   48.2   48.3   48.2    80   42.3   4.0     W   0.67   7.0     W   46.8   48.1   46.7   46.9  29.832  0.00  0.00   169     2.42    183     0.0  0.00   0.0   0.117   0.000   70.8    46   49.0   68.9   8.63  .0737    0.000   203    7    100.0   10 
 3/03/21  5:20p   48.1   48.3   48.0    80   42.2   3.0     W   0.50   6.0     W   47.5   48.0   47.4   46.5  29.829  0.00  0.00   118     1.69    142     0.0  0.00   0.0   0.117   0.000   70.7    46   48.9   68.8   8.64  .0737    0.000   203    7    100.0   10 
 3/03/21  5:30p   47.5   48.0   47.5    80   41.6   3.0     W   0.50   7.0     W   46.8   47.3   46.6   44.7  29.828  0.00  0.00    72     1.03     91     0.0  0.00   0.0   0.122   0.000   70.7    46   48.9   68.8   8.64  .0737    0.000   203    7    100.0   10 
 3/03/21  5:40p   47.1   47.5   47.1    80   41.2   3.0    SW   0.50   5.0   WSW   46.4   46.9   46.2   43.7  29.830  0.00  0.00    48     0.69     62     0.0  0.00   0.0   0.124   0.000   70.6    46   48.8   68.7   8.64  .0737    0.000   199    7    100.0   10 
 3/03/21  5:50p   46.6   47.1   46.6    81   41.1   4.0     W   0.67   6.0     W   44.9   46.4   44.7   41.7  29.834  0.00  0.00    24     0.34     30     0.0  0.00   0.0   0.128   0.000   70.5    46   48.7   68.6   8.64  .0738    0.000   201    7    100.0   10 
 3/03/21  6:00p   46.1   46.6   46.1    81   40.6   3.0     W   0.50   6.0     W   45.3   45.9   45.1   41.8  29.834  0.00  0.00    11     0.16     16     0.0  0.00   0.0   0.131   0.000   70.6    46   48.8   68.7   8.64  .0738    0.002   202    7    100.0   10 
 3/03/21  6:10p   45.7   46.1   45.7    81   40.2   2.0   WSW   0.33   4.0   WSW   45.7   45.5   45.5   42.0  29.835  0.00  0.00     2     0.03      5     0.0  0.00   0.0   0.134   0.000   70.5    46   48.7   68.6   8.64  .0738    0.000   200    7    100.0   10 
 3/03/21  6:20p   45.1   45.7   45.1    81   39.6   1.0   SSW   0.17   2.0   SSW   45.1   44.9   44.9   41.3  29.835  0.00  0.00     0     0.00      0     0.0  0.00   0.0   0.138   0.000   70.6    46   48.8   68.7   8.64  .0738    0.000   199    7    100.0   10 
 3/03/21  6:30p   44.5   45.1   44.5    81   39.0   0.0   SSW   0.00   2.0   SSW   44.5   44.3   44.3   40.7  29.835  0.00  0.00     0     0.00      0     0.0  0.00   0.0   0.142   0.000   70.6    46   48.8   68.7   8.64  .0738    0.000   201    7    100.0   10 
 3/03/21  6:40p   43.8   44.5   43.8    81   38.3   0.0   ---   0.00   0.0   ---   43.8   43.6   43.6   40.0  29.835  0.00  0.00     0     0.00      0     0.0  0.00   0.0   0.147   0.000   70.6    46   48.8   68.7   8.64  .0738    0.000   203    7    100.0   10 
 3/03/21  6:50p   43.1   43.8   43.1    81   37.7   0.0   ---   0.00   0.0   ---   43.1   42.8   42.8   39.2  29.841  0.00  0.00     0     0.00      0     0.0  0.00   0.0   0.152   0.000   70.5    46   48.7   68.6   8.64  .0738    0.000   202    7    100.0   10 
 3/03/21  7:00p   42.5   43.1   42.4    82   37.4   0.0   ---   0.00   0.0   ---   42.5   42.3   42.3   38.7  29.846  0.00  0.00     0     0.00      0     0.0  0.00   0.0   0.156   0.000   70.5    46   48.7   68.6   8.64  .0738    0.000   200    7    100.0   10 
 3/03/21  7:10p   41.9   42.4   41.9    82   36.8   1.0     S   0.17   3.0     S   41.9   41.6   41.6   37.9  29.850  0.00  0.00     0     0.00      0     0.0  0.00   0.0   0.160   0.000   70.4    46   48.6   68.4   8.64  .0738    0.000   201    7    100.0   10 
 3/03/21  7:20p   41.8   41.9   41.7    83   37.0   0.0     S   0.00   2.0     S   41.8   41.6   41.6   38.0  29.857  0.00  0.00     0     0.00      0     0.0  0.00   0.0   0.161   0.000   70.2    46   48.4   68.2   8.65  .0739    0.000   201    7    100.0   10 
 3/03/21  7:30p   41.8   41.8   41.7    84   37.3   0.0     S   0.00   3.0     S   41.8   41.6   41.6   38.0  29.859  0.00  0.00     0     0.00      0     0.0  0.00   0.0   0.161   0.000   70.2    46   48.4   68.2   8.65  .0739    0.000   199    7    100.0   10 
 3/03/21  7:40p   42.0   42.0   41.8    85   37.8   0.0   ---   0.00   0.0   ---   42.0   41.8   41.8   38.2  29.861  0.00  0.00     0     0.00      0     0.0  0.00   0.0   0.160   0.000   70.1    46   48.4   68.0   8.65  .0739    0.000   201    7    100.0   10 
 3/03/21  7:50p   42.1   42.1   41.9    85   37.9   0.0   ---   0.00   0.0   ---   42.1   41.9   41.9   38.3  29.863  0.00  0.00     0     0.00      0     0.0  0.00   0.0   0.159   0.000   70.1    46   48.4   68.0   8.65  .0739    0.000   202    7    100.0   10 
 3/03/21  8:00p   42.3   42.3   42.1    86   38.4   0.0   ---   0.00   0.0   ---   42.3   42.2   42.2   38.6  29.862  0.00  0.00     0     0.00      0     0.0  0.00   0.0   0.158   0.000   70.0    46   48.3   67.9   8.65  .0739    0.000   203    7    100.0   10 
 3/03/21  8:10p   42.4   42.4   42.2    86   38.5   0.0   ---   0.00   0.0   ---   42.4   42.3   42.3   38.7  29.863  0.00  0.00     0     0.00      0     0.0  0.00   0.0   0.157   0.000   69.9    46   48.2   67.8   8.65  .0739    0.000   201    7    100.0   10 
 3/03/21  8:20p   42.4   42.4   42.3    86   38.5   0.0   ---   0.00   0.0   ---   42.4   42.3   42.3   38.7  29.861  0.00  0.00     0     0.00      0     0.0  0.00   0.0   0.157   0.000   69.9    47   48.7   67.9   8.75  .0739    0.000   201    7    100.0   10 
 3/03/21  8:30p   42.3   42.4   42.3    86   38.4   0.0   ---   0.00   0.0   ---   42.3   42.2   42.2   38.6  29.863  0.00  0.00     0     0.00      0     0.0  0.00   0.0   0.158   0.000   69.8    47   48.7   67.9   8.75  .0739    0.000   202    7    100.0   10 
 3/03/21  8:40p   42.1   42.3   42.1    87   38.5   0.0    SE   0.00   1.0    SE   42.1   42.0   42.0   38.4  29.867  0.00  0.00     0     0.00      0     0.0  0.00   0.0   0.159   0.000   69.7    46   48.0   67.7   8.65  .0740    0.000   202    7    100.0   10 
 3/03/21  8:50p   42.1   42.2   42.1    87   38.5   0.0    SE   0.00   2.0    SE   42.1   42.0   42.0   38.4  29.867  0.00  0.00     0     0.00      0     0.0  0.00   0.0   0.159   0.000   69.6    46   47.9   67.6   8.65  .0740    0.000   203    7    100.0   10 
 3/03/21  9:00p   42.2   42.3   42.1    87   38.6   1.0    SE   0.17   2.0    SE   42.2   42.1   42.1   38.5  29.871  0.00  0.00     0     0.00      0     0.0  0.00   0.0   0.158   0.000   69.6    46   47.9   67.6   8.65  .0740    0.000   201    7    100.0   10 
 3/03/21  9:10p   42.4   42.5   42.3    87   38.8   1.0    SE   0.17   4.0   ESE   42.4   42.3   42.3   38.7  29.871  0.00  0.00     0     0.00      0     0.0  0.00   0.0   0.157   0.000   69.5    46   47.8   67.6   8.65  .0740    0.000   202    7    100.0   10 
 3/03/21  9:20p   42.6   42.6   42.4    87   39.0   1.0   ESE   0.17   3.0   ESE   42.6   42.5   42.5   38.9  29.874  0.00  0.00     0     0.00      0     0.0  0.00   0.0   0.156   0.000   69.4    46   47.7   67.5   8.65  .0741    0.000   204    7    100.0   10 
 3/03/21  9:30p   42.7   42.7   42.6    87   39.1   1.0   ESE   0.17   3.0    SE   42.7   42.6   42.6   39.0  29.869  0.00  0.00     0     0.00      0     0.0  0.00   0.0   0.155   0.000   69.3    46   47.6   67.4   8.65  .0741    0.000   203    7    100.0   10 
 3/03/21  9:40p   42.8   42.9   42.7    87   39.2   2.0    SE   0.33   5.0   ESE   42.8   42.7   42.7   39.1  29.869  0.00  0.00     0     0.00      0     0.0  0.00   0.0   0.154   0.000   69.2    46   47.5   67.3   8.65  .0741    0.000   202    7    100.0   10 
 3/03/21  9:50p   42.8   42.9   42.8    87   39.2   1.0   ESE   0.17   4.0    SE   42.8   42.7   42.7   39.1  29.871  0.00  0.00     0     0.00      0     0.0  0.00   0.0   0.154   0.000   69.1    46   47.4   67.3   8.65  .0741    0.000   203    7    100.0   10 
 3/03/21 10:00p   42.9   42.9   42.8    87   39.3   2.0   ESE   0.33   6.0     S   42.9   42.8   42.8   39.2  29.867  0.00  0.00     0     0.00      0     0.0  0.00   0.0   0.153   0.000   69.0    46   47.4   67.2   8.65  .0741    0.000   205    7    100.0   10 
 3/03/21 10:10p   42.9   43.0   42.9    87   39.3   2.0   ESE   0.33   6.0   SSE   42.9   42.8   42.8   39.2  29.875  0.00  0.00     0     0.00      0     0.0  0.00   0.0   0.153   0.000   68.9    46   47.3   67.1   8.65  .0741    0.000   203    7    100.0   10 
 3/03/21 10:20p   43.1   43.1   42.9    87   39.5   2.0   ESE   0.33   6.0   ESE   43.1   43.0   43.0   39.4  29.878  0.00  0.00     0     0.00      0     0.0  0.00   0.0   0.152   0.000   68.8    46   47.2   67.0   8.65  .0742    0.000   203    7    100.0   10 
 3/03/21 10:30p   43.4   43.4   43.1    87   39.8   2.0   ESE   0.33   7.0    SE   43.4   43.4   43.4   39.8  29.879  0.00  0.00     0     0.00      0     0.0  0.00   0.0   0.150   0.000   68.7    46   47.1   66.9   8.65  .0742    0.000   201    7    100.0   10 
 3/03/21 10:40p   43.6   43.7   43.4    87   40.0   2.0     S   0.33   5.0    SE   43.6   43.6   43.6   40.0  29.885  0.00  0.00     0     0.00      0     0.0  0.00   0.0   0.149   0.000   68.7    46   47.1   66.9   8.65  .0742    0.000   202    7    100.0   10 
 3/03/21 10:50p   43.9   43.9   43.6    86   40.0   3.0     S   0.50   8.0     S   42.8   43.8   42.7   39.1  29.895  0.00  0.00     0     0.00      0     0.0  0.00   0.0   0.147   0.000   68.6    46   47.0   66.8   8.65  .0742    0.000   203    7    100.0   10 
 3/03/21 11:00p   45.3   45.3   43.8    86   41.4   8.0   SSW   1.33  16.0   SSE   41.0   45.3   41.0   37.7  29.899  0.00  0.00     0     0.00      0     0.0  0.00   0.0   0.137   0.000   68.5    46   46.9   66.8   8.65  .0743    0.000   202    7    100.0   10 
 3/03/21 11:10p   45.8   45.8   45.4    85   41.5   8.0     S   1.33  13.0   SSE   41.6   45.8   41.6   38.3  29.902  0.00  0.00     0     0.00      0     0.0  0.00   0.0   0.133   0.000   68.4    46   46.8   66.7   8.65  .0743    0.000   204    7    100.0   10 
 3/03/21 11:20p   45.9   46.0   45.7    84   41.3   7.0     S   1.17  12.0   SSW   42.3   45.9   42.3   38.8  29.905  0.00  0.00     0     0.00      0     0.0  0.00   0.0   0.133   0.000   68.4    46   46.8   66.7   8.65  .0743    0.000   204    7    100.0   10 
 3/03/21 11:30p   45.8   45.9   45.8    84   41.2   7.0     S   1.17  13.0     S   42.2   45.7   42.1   38.6  29.902  0.00  0.00     0     0.00      0     0.0  0.00   0.0   0.133   0.000   68.3    46   46.7   66.6   8.65  .0743    0.000   203    7    100.0   10 
 3/03/21 11:40p   45.8   45.9   45.8    84   41.2   6.0     S   1.00  12.0   SSW   42.7   45.7   42.6   39.1  29.899  0.00  0.00     0     0.00      0     0.0  0.00   0.0   0.133   0.000   68.2    46   46.6   66.5   8.65  .0743    0.000   203    7    100.0   10 
 3/03/21 11:50p   45.8   45.9   45.8    83   40.9   6.0     S   1.00  11.0   SSW   42.7   45.7   42.6   39.1  29.900  0.00  0.00     0     0.00      0     0.0  0.00   0.0   0.133   0.000   68.2    46   46.6   66.5   8.65  .0743    0.000   204    7    100.0   10 
 3/04/21 12:00a   46.0   46.0   45.8    83   41.1   6.0     S   1.00  11.0     S   42.9   45.9   42.8   39.3  29.905  0.00  0.00     0     0.00      0     0.0  0.00   0.0   0.132   0.000   68.1    46   46.5   66.4   8.65  .0744    0.001   203    7    100.0   10 
 3/04/21 12:10a   46.0   46.1   46.0    83   41.1   5.0     S   0.83  12.0   SSE   43.5   45.9   43.4   39.9  29.908  0.00  0.00     0     0.00      0     0.0  0.00   0.0   0.132   0.000   68.0    46   46.4   66.3   8.65  .0744    0.000   197    7     99.5   10 
 3/04/21 12:20a   46.1   46.2   46.0    83   41.2   6.0     S   1.00  14.0     S   43.0   46.0   42.9   39.4  29.907  0.00  0.00     0     0.00      0     0.0  0.00   0.0   0.131   0.000   68.0    46   46.4   66.3   8.65  .0744    0.000   201    7    100.0   10 
 3/04/21 12:30a   46.3   46.3   46.2    82   41.1   7.0     S   1.17  14.0   SSW   42.8   46.2   42.7   39.2  29.904  0.00  0.00     0     0.00      0     0.0  0.00   0.0   0.130   0.000   68.0    46   46.4   66.3   8.65  .0744    0.000   202    7    100.0   10 
Email: AdamSPAM@StormwatchersRetreat.com (To send me email remove the word 'SPAM' from my email address.)